sensor_id;sensor_type;location;lat;lon;timestamp;pressure;altitude;pressure_sealevel;temperature;humidity
68474;BME280;55461;52.066;5.194;2022-07-23T00:00:12;101995.0;;;16.16;77.92
68474;BME280;55461;52.066;5.194;2022-07-23T00:01:59;101988.0;;;16.38;77.14
68474;BME280;55461;52.066;5.194;2022-07-23T00:03:45;101995.0;;;16.29;77.7
68474;BME280;55461;52.066;5.194;2022-07-23T00:05:31;101988.0;;;16.25;77.95
68474;BME280;55461;52.066;5.194;2022-07-23T00:07:18;101994.0;;;16.23;78.19
68474;BME280;55461;52.066;5.194;2022-07-23T00:10:51;101997.0;;;16.18;78.13
68474;BME280;55461;52.066;5.194;2022-07-23T00:12:38;101994.0;;;16.14;78.31
68474;BME280;55461;52.066;5.194;2022-07-23T00:14:25;101994.0;;;16.14;78.16
68474;BME280;55461;52.066;5.194;2022-07-23T00:17:57;101989.0;;;16.13;78.3
68474;BME280;55461;52.066;5.194;2022-07-23T00:21:31;101988.0;;;16.02;78.78
68474;BME280;55461;52.066;5.194;2022-07-23T00:23:17;101986.0;;;16.05;78.97
68474;BME280;55461;52.066;5.194;2022-07-23T00:25:04;101988.0;;;16.03;78.83
68474;BME280;55461;52.066;5.194;2022-07-23T00:26:50;101982.0;;;16.06;78.77
68474;BME280;55461;52.066;5.194;2022-07-23T00:28:36;101986.0;;;16.04;78.8
68474;BME280;55461;52.066;5.194;2022-07-23T00:30:23;101982.0;;;16.02;79.02
68474;BME280;55461;52.066;5.194;2022-07-23T00:33:56;101976.0;;;16.03;78.94
68474;BME280;55461;52.066;5.194;2022-07-23T00:35:43;101981.0;;;15.9;79.45
68474;BME280;55461;52.066;5.194;2022-07-23T00:37:30;101984.0;;;16.0;79.02
68474;BME280;55461;52.066;5.194;2022-07-23T00:41:04;101984.0;;;15.9;79.5
68474;BME280;55461;52.066;5.194;2022-07-23T00:42:51;101985.0;;;15.81;80.13
68474;BME280;55461;52.066;5.194;2022-07-23T00:46:25;101983.0;;;15.77;80.27
68474;BME280;55461;52.066;5.194;2022-07-23T00:48:11;101976.0;;;16.03;79.13
68474;BME280;55461;52.066;5.194;2022-07-23T00:49:58;101976.0;;;16.04;78.94
68474;BME280;55461;52.066;5.194;2022-07-23T00:51:45;101980.0;;;15.79;80.08
68474;BME280;55461;52.066;5.194;2022-07-23T00:53:32;101980.0;;;15.98;79.33
68474;BME280;55461;52.066;5.194;2022-07-23T00:57:05;101977.0;;;15.9;79.61
68474;BME280;55461;52.066;5.194;2022-07-23T00:58:52;101977.0;;;15.88;79.58
68474;BME280;55461;52.066;5.194;2022-07-23T01:00:38;101974.0;;;15.95;79.41
68474;BME280;55461;52.066;5.194;2022-07-23T01:02:23;101969.0;;;16.05;78.94
68474;BME280;55461;52.066;5.194;2022-07-23T01:05:58;101966.0;;;15.82;80.02
68474;BME280;55461;52.066;5.194;2022-07-23T01:09:32;101963.0;;;15.67;81.08
68474;BME280;55461;52.066;5.194;2022-07-23T01:11:19;101964.0;;;15.5;81.67
68474;BME280;55461;52.066;5.194;2022-07-23T01:13:07;101961.0;;;15.4;82.58
68474;BME280;55461;52.066;5.194;2022-07-23T01:14:56;101961.0;;;15.42;82.9
68474;BME280;55461;52.066;5.194;2022-07-23T01:16:45;101956.0;;;15.36;82.98
68474;BME280;55461;52.066;5.194;2022-07-23T01:18:32;101955.0;;;15.28;83.24
68474;BME280;55461;52.066;5.194;2022-07-23T01:22:07;101947.0;;;15.14;83.95
68474;BME280;55461;52.066;5.194;2022-07-23T01:23:54;101944.0;;;15.07;84.23
68474;BME280;55461;52.066;5.194;2022-07-23T01:25:47;101942.0;;;15.09;84.58
68474;BME280;55461;52.066;5.194;2022-07-23T01:27:33;101940.0;;;15.18;83.87
68474;BME280;55461;52.066;5.194;2022-07-23T01:29:21;101939.0;;;15.17;84.04
68474;BME280;55461;52.066;5.194;2022-07-23T01:31:08;101945.0;;;15.22;83.87
68474;BME280;55461;52.066;5.194;2022-07-23T01:34:41;101944.0;;;15.24;83.55
68474;BME280;55461;52.066;5.194;2022-07-23T01:36:27;101944.0;;;15.28;83.53
68474;BME280;55461;52.066;5.194;2022-07-23T01:38:15;101947.0;;;15.47;82.74
68474;BME280;55461;52.066;5.194;2022-07-23T01:40:02;101951.0;;;15.36;83.01
68474;BME280;55461;52.066;5.194;2022-07-23T01:41:49;101953.0;;;15.52;82.24
68474;BME280;55461;52.066;5.194;2022-07-23T01:43:35;101955.0;;;15.59;81.77
68474;BME280;55461;52.066;5.194;2022-07-23T01:47:08;101951.0;;;15.48;82.19
68474;BME280;55461;52.066;5.194;2022-07-23T01:48:54;101958.0;;;15.33;82.78
68474;BME280;55461;52.066;5.194;2022-07-23T01:50:41;101956.0;;;15.16;83.7
68474;BME280;55461;52.066;5.194;2022-07-23T01:52:27;101951.0;;;15.43;82.46
68474;BME280;55461;52.066;5.194;2022-07-23T01:54:13;101949.0;;;15.21;83.34
68474;BME280;55461;52.066;5.194;2022-07-23T01:57:46;101945.0;;;15.07;84.21
68474;BME280;55461;52.066;5.194;2022-07-23T01:59:34;101953.0;;;15.15;83.87
68474;BME280;55461;52.066;5.194;2022-07-23T02:01:21;101957.0;;;15.23;83.3
68474;BME280;55461;52.066;5.194;2022-07-23T02:03:08;101951.0;;;15.29;82.99
68474;BME280;55461;52.066;5.194;2022-07-23T02:04:54;101951.0;;;15.24;83.18
68474;BME280;55461;52.066;5.194;2022-07-23T02:06:40;101948.0;;;15.2;83.45
68474;BME280;55461;52.066;5.194;2022-07-23T02:10:13;101944.0;;;15.29;82.86
68474;BME280;55461;52.066;5.194;2022-07-23T02:11:59;101942.0;;;15.07;84.14
68474;BME280;55461;52.066;5.194;2022-07-23T02:13:45;101947.0;;;15.02;84.03
68474;BME280;55461;52.066;5.194;2022-07-23T02:15:31;101948.0;;;15.08;83.87
68474;BME280;55461;52.066;5.194;2022-07-23T02:17:18;101950.0;;;15.04;83.98
68474;BME280;55461;52.066;5.194;2022-07-23T02:19:04;101950.0;;;14.85;85.03
68474;BME280;55461;52.066;5.194;2022-07-23T02:22:38;101950.0;;;14.81;85.6
68474;BME280;55461;52.066;5.194;2022-07-23T02:24:25;101953.0;;;14.87;85.02
68474;BME280;55461;52.066;5.194;2022-07-23T02:26:11;101949.0;;;15.0;84.43
68474;BME280;55461;52.066;5.194;2022-07-23T02:27:57;101946.0;;;15.1;83.81
68474;BME280;55461;52.066;5.194;2022-07-23T02:29:43;101942.0;;;15.03;84.08
68474;BME280;55461;52.066;5.194;2022-07-23T02:33:18;101949.0;;;14.8;85.18
68474;BME280;55461;52.066;5.194;2022-07-23T02:35:05;101951.0;;;14.67;85.71
68474;BME280;55461;52.066;5.194;2022-07-23T02:36:52;101951.0;;;14.59;86.27
68474;BME280;55461;52.066;5.194;2022-07-23T02:38:38;101953.0;;;14.61;86.31
68474;BME280;55461;52.066;5.194;2022-07-23T02:40:25;101947.0;;;14.67;86.15
68474;BME280;55461;52.066;5.194;2022-07-23T02:42:12;101948.0;;;14.52;86.64
68474;BME280;55461;52.066;5.194;2022-07-23T02:45:44;101950.0;;;14.56;86.51
68474;BME280;55461;52.066;5.194;2022-07-23T02:47:32;101948.0;;;14.78;85.48
68474;BME280;55461;52.066;5.194;2022-07-23T02:49:18;101953.0;;;14.56;86.24
68474;BME280;55461;52.066;5.194;2022-07-23T02:51:05;101960.0;;;14.6;86.2
68474;BME280;55461;52.066;5.194;2022-07-23T02:52:52;101964.0;;;14.58;86.45
68474;BME280;55461;52.066;5.194;2022-07-23T02:54:39;101968.0;;;14.56;86.53
68474;BME280;55461;52.066;5.194;2022-07-23T02:58:11;101965.0;;;14.79;85.59
68474;BME280;55461;52.066;5.194;2022-07-23T02:59:57;101964.0;;;14.72;85.65
68474;BME280;55461;52.066;5.194;2022-07-23T03:01:44;101967.0;;;14.9;84.82
68474;BME280;55461;52.066;5.194;2022-07-23T03:03:31;101965.0;;;14.93;84.65
68474;BME280;55461;52.066;5.194;2022-07-23T03:05:17;101963.0;;;14.92;84.47
68474;BME280;55461;52.066;5.194;2022-07-23T03:08:49;101969.0;;;14.85;84.58
68474;BME280;55461;52.066;5.194;2022-07-23T03:10:35;101970.0;;;14.84;84.57
68474;BME280;55461;52.066;5.194;2022-07-23T03:12:21;101973.0;;;14.75;85.01
68474;BME280;55461;52.066;5.194;2022-07-23T03:14:08;101975.0;;;14.79;84.87
68474;BME280;55461;52.066;5.194;2022-07-23T03:15:54;101976.0;;;14.73;85.12
68474;BME280;55461;52.066;5.194;2022-07-23T03:17:40;101975.0;;;14.85;84.67
68474;BME280;55461;52.066;5.194;2022-07-23T03:21:13;101972.0;;;14.9;84.17
68474;BME280;55461;52.066;5.194;2022-07-23T03:22:59;101977.0;;;14.94;83.68
68474;BME280;55461;52.066;5.194;2022-07-23T03:25:01;101980.0;;;14.83;84.07
68474;BME280;55461;52.066;5.194;2022-07-23T03:26:48;101984.0;;;14.61;85.29
68474;BME280;55461;52.066;5.194;2022-07-23T03:28:34;101989.0;;;14.57;85.68
68474;BME280;55461;52.066;5.194;2022-07-23T03:30:20;101993.0;;;14.69;85.1
68474;BME280;55461;52.066;5.194;2022-07-23T03:33:54;102001.0;;;14.52;86.23
68474;BME280;55461;52.066;5.194;2022-07-23T03:39:53;101992.0;;;14.54;86.35
68474;BME280;55461;52.066;5.194;2022-07-23T03:41:39;101990.0;;;14.31;87.42
68474;BME280;55461;52.066;5.194;2022-07-23T03:43:26;101983.0;;;14.23;87.75
68474;BME280;55461;52.066;5.194;2022-07-23T03:45:12;101985.0;;;14.25;87.75
68474;BME280;55461;52.066;5.194;2022-07-23T03:46:59;101982.0;;;14.02;89.19
68474;BME280;55461;52.066;5.194;2022-07-23T03:50:32;101978.0;;;14.04;89.57
68474;BME280;55461;52.066;5.194;2022-07-23T03:52:19;101975.0;;;14.09;89.57
68474;BME280;55461;52.066;5.194;2022-07-23T03:54:06;101977.0;;;13.95;90.23
68474;BME280;55461;52.066;5.194;2022-07-23T03:55:53;101970.0;;;13.86;90.68
68474;BME280;55461;52.066;5.194;2022-07-23T03:57:39;101968.0;;;13.88;91.1
68474;BME280;55461;52.066;5.194;2022-07-23T04:01:12;101965.0;;;13.95;90.67
68474;BME280;55461;52.066;5.194;2022-07-23T04:02:59;101962.0;;;14.07;89.69
68474;BME280;55461;52.066;5.194;2022-07-23T04:04:46;101967.0;;;14.13;89.57
68474;BME280;55461;52.066;5.194;2022-07-23T04:06:34;101968.0;;;14.13;89.51
68474;BME280;55461;52.066;5.194;2022-07-23T04:08:22;101967.0;;;14.09;89.69
68474;BME280;55461;52.066;5.194;2022-07-23T04:10:08;101971.0;;;14.07;90.1
68474;BME280;55461;52.066;5.194;2022-07-23T04:13:41;101974.0;;;14.06;89.82
68474;BME280;55461;52.066;5.194;2022-07-23T04:15:28;101978.0;;;14.24;89.19
68474;BME280;55461;52.066;5.194;2022-07-23T04:17:14;101976.0;;;14.34;88.53
68474;BME280;55461;52.066;5.194;2022-07-23T04:19:01;101975.0;;;14.3;88.65
68474;BME280;55461;52.066;5.194;2022-07-23T04:20:48;101973.0;;;14.3;88.59
68474;BME280;55461;52.066;5.194;2022-07-23T04:22:34;101972.0;;;14.2;89.2
68474;BME280;55461;52.066;5.194;2022-07-23T04:26:07;101973.0;;;14.13;89.49
68474;BME280;55461;52.066;5.194;2022-07-23T04:27:53;101976.0;;;14.15;89.76
68474;BME280;55461;52.066;5.194;2022-07-23T04:29:39;101976.0;;;14.14;89.69
68474;BME280;55461;52.066;5.194;2022-07-23T04:31:25;101978.0;;;14.13;89.84
68474;BME280;55461;52.066;5.194;2022-07-23T04:33:11;101980.0;;;14.17;89.9
68474;BME280;55461;52.066;5.194;2022-07-23T04:36:45;101980.0;;;14.2;89.85
68474;BME280;55461;52.066;5.194;2022-07-23T04:38:32;101980.0;;;14.23;89.5
68474;BME280;55461;52.066;5.194;2022-07-23T04:40:19;101980.0;;;14.31;89.01
68474;BME280;55461;52.066;5.194;2022-07-23T04:42:06;101984.0;;;14.4;88.52
68474;BME280;55461;52.066;5.194;2022-07-23T04:43:52;101986.0;;;14.45;88.47
68474;BME280;55461;52.066;5.194;2022-07-23T04:45:39;101992.0;;;14.46;88.45
68474;BME280;55461;52.066;5.194;2022-07-23T04:49:12;101992.0;;;14.56;88.24
68474;BME280;55461;52.066;5.194;2022-07-23T04:50:58;101992.0;;;14.68;87.68
68474;BME280;55461;52.066;5.194;2022-07-23T04:52:45;101996.0;;;14.73;87.26
68474;BME280;55461;52.066;5.194;2022-07-23T04:54:31;101994.0;;;14.71;87.33
68474;BME280;55461;52.066;5.194;2022-07-23T04:56:18;101994.0;;;14.8;86.93
68474;BME280;55461;52.066;5.194;2022-07-23T04:58:04;101994.0;;;14.92;86.45
68474;BME280;55461;52.066;5.194;2022-07-23T05:01:37;101997.0;;;14.88;86.83
68474;BME280;55461;52.066;5.194;2022-07-23T05:03:23;101995.0;;;14.66;87.59
68474;BME280;55461;52.066;5.194;2022-07-23T05:05:09;101992.0;;;14.68;87.83
68474;BME280;55461;52.066;5.194;2022-07-23T05:06:56;101996.0;;;14.87;87.43
68474;BME280;55461;52.066;5.194;2022-07-23T05:08:43;101992.0;;;14.92;87.24
68474;BME280;55461;52.066;5.194;2022-07-23T05:12:16;101994.0;;;14.91;87.44
68474;BME280;55461;52.066;5.194;2022-07-23T05:14:04;101997.0;;;15.15;86.79
68474;BME280;55461;52.066;5.194;2022-07-23T05:15:50;101992.0;;;15.27;86.38
68474;BME280;55461;52.066;5.194;2022-07-23T05:17:37;101998.0;;;15.17;86.8
68474;BME280;55461;52.066;5.194;2022-07-23T05:19:23;101997.0;;;15.23;86.38
68474;BME280;55461;52.066;5.194;2022-07-23T05:21:10;101995.0;;;15.32;86.11
68474;BME280;55461;52.066;5.194;2022-07-23T05:24:43;102002.0;;;15.23;86.53
68474;BME280;55461;52.066;5.194;2022-07-23T05:26:29;102005.0;;;15.49;85.33
68474;BME280;55461;52.066;5.194;2022-07-23T05:28:15;102005.0;;;15.43;84.86
68474;BME280;55461;52.066;5.194;2022-07-23T05:30:02;102009.0;;;15.51;84.94
68474;BME280;55461;52.066;5.194;2022-07-23T05:31:49;102006.0;;;15.44;85.77
68474;BME280;55461;52.066;5.194;2022-07-23T05:35:21;102008.0;;;15.4;84.86
68474;BME280;55461;52.066;5.194;2022-07-23T05:37:07;102009.0;;;15.6;84.41
68474;BME280;55461;52.066;5.194;2022-07-23T05:38:54;102009.0;;;15.63;83.3
68474;BME280;55461;52.066;5.194;2022-07-23T05:40:40;102010.0;;;15.72;82.41
68474;BME280;55461;52.066;5.194;2022-07-23T05:42:26;102016.0;;;15.81;82.0
68474;BME280;55461;52.066;5.194;2022-07-23T05:44:12;102012.0;;;15.97;81.75
68474;BME280;55461;52.066;5.194;2022-07-23T05:47:46;102021.0;;;15.9;79.78
68474;BME280;55461;52.066;5.194;2022-07-23T05:49:36;102027.0;;;15.99;80.58
68474;BME280;55461;52.066;5.194;2022-07-23T05:51:24;102025.0;;;16.13;80.81
68474;BME280;55461;52.066;5.194;2022-07-23T05:53:12;102022.0;;;16.21;80.27
68474;BME280;55461;52.066;5.194;2022-07-23T05:54:59;102021.0;;;16.09;79.22
68474;BME280;55461;52.066;5.194;2022-07-23T05:56:46;102023.0;;;16.25;79.58
68474;BME280;55461;52.066;5.194;2022-07-23T06:00:18;102027.0;;;16.4;79.25
68474;BME280;55461;52.066;5.194;2022-07-23T06:02:05;102027.0;;;16.5;78.05
68474;BME280;55461;52.066;5.194;2022-07-23T06:03:51;102023.0;;;16.39;77.92
68474;BME280;55461;52.066;5.194;2022-07-23T06:05:37;102030.0;;;16.5;77.77
68474;BME280;55461;52.066;5.194;2022-07-23T06:07:23;102025.0;;;16.41;76.02
68474;BME280;55461;52.066;5.194;2022-07-23T06:10:58;102030.0;;;16.55;75.23
68474;BME280;55461;52.066;5.194;2022-07-23T06:12:45;102028.0;;;16.52;74.28
68474;BME280;55461;52.066;5.194;2022-07-23T06:14:32;102026.0;;;16.36;74.83
68474;BME280;55461;52.066;5.194;2022-07-23T06:16:22;102021.0;;;16.48;75.06
68474;BME280;55461;52.066;5.194;2022-07-23T06:18:08;102024.0;;;16.71;74.23
68474;BME280;55461;52.066;5.194;2022-07-23T06:19:55;102022.0;;;16.61;74.86
68474;BME280;55461;52.066;5.194;2022-07-23T06:23:29;102023.0;;;16.62;73.53
68474;BME280;55461;52.066;5.194;2022-07-23T06:25:16;102027.0;;;16.73;73.61
68474;BME280;55461;52.066;5.194;2022-07-23T06:27:03;102027.0;;;16.88;73.3
68474;BME280;55461;52.066;5.194;2022-07-23T06:30:35;102028.0;;;16.75;71.48
68474;BME280;55461;52.066;5.194;2022-07-23T06:32:22;102026.0;;;17.06;71.0
68474;BME280;55461;52.066;5.194;2022-07-23T06:35:54;102023.0;;;16.95;71.02
68474;BME280;55461;52.066;5.194;2022-07-23T06:37:40;102027.0;;;17.14;70.94
68474;BME280;55461;52.066;5.194;2022-07-23T06:39:26;102026.0;;;16.77;71.49
68474;BME280;55461;52.066;5.194;2022-07-23T06:41:13;102024.0;;;17.0;70.2
68474;BME280;55461;52.066;5.194;2022-07-23T06:42:59;102023.0;;;17.03;70.02
68474;BME280;55461;52.066;5.194;2022-07-23T06:44:45;102022.0;;;17.21;69.74
68474;BME280;55461;52.066;5.194;2022-07-23T06:48:19;102022.0;;;17.29;69.39
68474;BME280;55461;52.066;5.194;2022-07-23T06:50:06;102022.0;;;17.45;68.95
68474;BME280;55461;52.066;5.194;2022-07-23T06:51:52;102023.0;;;17.41;68.77
68474;BME280;55461;52.066;5.194;2022-07-23T06:53:38;102030.0;;;17.56;67.37
68474;BME280;55461;52.066;5.194;2022-07-23T06:55:24;102037.0;;;17.46;67.78
68474;BME280;55461;52.066;5.194;2022-07-23T06:58:57;102039.0;;;17.59;67.8
68474;BME280;55461;52.066;5.194;2022-07-23T07:00:44;102039.0;;;17.73;67.52
68474;BME280;55461;52.066;5.194;2022-07-23T07:02:29;102031.0;;;17.86;67.44
68474;BME280;55461;52.066;5.194;2022-07-23T07:04:15;102032.0;;;17.95;66.53
68474;BME280;55461;52.066;5.194;2022-07-23T07:06:03;102031.0;;;17.95;66.42
68474;BME280;55461;52.066;5.194;2022-07-23T07:07:49;102040.0;;;17.87;66.88
68474;BME280;55461;52.066;5.194;2022-07-23T07:11:21;102042.0;;;17.84;67.0
68474;BME280;55461;52.066;5.194;2022-07-23T07:13:07;102035.0;;;17.75;65.59
68474;BME280;55461;52.066;5.194;2022-07-23T07:14:54;102035.0;;;17.91;66.62
68474;BME280;55461;52.066;5.194;2022-07-23T07:16:41;102035.0;;;18.09;65.58
68474;BME280;55461;52.066;5.194;2022-07-23T07:18:28;102039.0;;;18.22;65.59
68474;BME280;55461;52.066;5.194;2022-07-23T07:22:02;102042.0;;;18.25;65.19
68474;BME280;55461;52.066;5.194;2022-07-23T07:23:48;102048.0;;;17.82;64.47
68474;BME280;55461;52.066;5.194;2022-07-23T07:25:35;102046.0;;;17.95;64.2
68474;BME280;55461;52.066;5.194;2022-07-23T07:27:22;102053.0;;;17.86;64.35
68474;BME280;55461;52.066;5.194;2022-07-23T07:29:08;102051.0;;;17.87;64.67
68474;BME280;55461;52.066;5.194;2022-07-23T07:30:54;102050.0;;;18.0;63.35
68474;BME280;55461;52.066;5.194;2022-07-23T07:34:28;102051.0;;;18.02;63.71
68474;BME280;55461;52.066;5.194;2022-07-23T07:36:14;102049.0;;;18.12;64.33
68474;BME280;55461;52.066;5.194;2022-07-23T07:38:01;102055.0;;;18.18;64.27
68474;BME280;55461;52.066;5.194;2022-07-23T07:39:47;102052.0;;;18.18;63.78
68474;BME280;55461;52.066;5.194;2022-07-23T07:41:34;102055.0;;;17.96;64.92
68474;BME280;55461;52.066;5.194;2022-07-23T07:43:21;102051.0;;;18.3;64.52
68474;BME280;55461;52.066;5.194;2022-07-23T07:46:54;102051.0;;;18.5;63.9
68474;BME280;55461;52.066;5.194;2022-07-23T07:48:40;102055.0;;;18.06;63.97
68474;BME280;55461;52.066;5.194;2022-07-23T07:50:27;102056.0;;;17.96;64.03
68474;BME280;55461;52.066;5.194;2022-07-23T07:52:13;102053.0;;;18.25;63.35
68474;BME280;55461;52.066;5.194;2022-07-23T07:54:00;102053.0;;;18.52;63.24
68474;BME280;55461;52.066;5.194;2022-07-23T07:57:34;102058.0;;;18.68;63.14
68474;BME280;55461;52.066;5.194;2022-07-23T07:59:21;102061.0;;;18.73;63.07
68474;BME280;55461;52.066;5.194;2022-07-23T08:01:07;102060.0;;;18.47;62.21
68474;BME280;55461;52.066;5.194;2022-07-23T08:02:54;102062.0;;;18.54;62.43
68474;BME280;55461;52.066;5.194;2022-07-23T08:04:41;102063.0;;;18.56;62.5
68474;BME280;55461;52.066;5.194;2022-07-23T08:06:26;102071.0;;;18.48;62.07
68474;BME280;55461;52.066;5.194;2022-07-23T08:10:01;102070.0;;;18.63;61.24
68474;BME280;55461;52.066;5.194;2022-07-23T08:11:50;102068.0;;;18.68;62.61
68474;BME280;55461;52.066;5.194;2022-07-23T08:13:37;102067.0;;;18.55;61.06
68474;BME280;55461;52.066;5.194;2022-07-23T08:15:25;102067.0;;;18.82;61.54
68474;BME280;55461;52.066;5.194;2022-07-23T08:17:12;102065.0;;;18.77;61.37
68474;BME280;55461;52.066;5.194;2022-07-23T08:18:58;102069.0;;;18.66;60.16
68474;BME280;55461;52.066;5.194;2022-07-23T08:22:51;102069.0;;;18.66;60.86
68474;BME280;55461;52.066;5.194;2022-07-23T08:24:37;102070.0;;;18.81;61.25
68474;BME280;55461;52.066;5.194;2022-07-23T08:26:24;102069.0;;;18.97;60.7
68474;BME280;55461;52.066;5.194;2022-07-23T08:28:12;102064.0;;;18.95;60.18
68474;BME280;55461;52.066;5.194;2022-07-23T08:29:59;102070.0;;;19.03;60.27
68474;BME280;55461;52.066;5.194;2022-07-23T08:31:45;102077.0;;;19.14;58.89
68474;BME280;55461;52.066;5.194;2022-07-23T08:33:32;102073.0;;;19.13;58.07
68474;BME280;55461;52.066;5.194;2022-07-23T08:37:09;102074.0;;;18.84;57.87
68474;BME280;55461;52.066;5.194;2022-07-23T08:38:56;102072.0;;;19.09;58.5
68474;BME280;55461;52.066;5.194;2022-07-23T08:40:43;102068.0;;;19.34;57.7
68474;BME280;55461;52.066;5.194;2022-07-23T08:42:32;102069.0;;;19.11;57.66
68474;BME280;55461;52.066;5.194;2022-07-23T08:44:19;102070.0;;;19.22;57.1
68474;BME280;55461;52.066;5.194;2022-07-23T08:46:06;102068.0;;;19.38;57.38
68474;BME280;55461;52.066;5.194;2022-07-23T08:49:41;102063.0;;;19.66;57.53
68474;BME280;55461;52.066;5.194;2022-07-23T08:51:28;102071.0;;;19.84;57.38
68474;BME280;55461;52.066;5.194;2022-07-23T08:53:16;102070.0;;;19.81;56.9
68474;BME280;55461;52.066;5.194;2022-07-23T08:55:03;102075.0;;;19.34;56.45
68474;BME280;55461;52.066;5.194;2022-07-23T08:56:51;102075.0;;;19.21;57.0
68474;BME280;55461;52.066;5.194;2022-07-23T09:00:24;102076.0;;;19.21;57.31
68474;BME280;55461;52.066;5.194;2022-07-23T09:02:11;102076.0;;;19.41;56.67
68474;BME280;55461;52.066;5.194;2022-07-23T09:03:58;102077.0;;;19.52;56.79
68474;BME280;55461;52.066;5.194;2022-07-23T09:05:45;102071.0;;;19.78;57.86
68474;BME280;55461;52.066;5.194;2022-07-23T09:07:33;102070.0;;;19.95;57.0
68474;BME280;55461;52.066;5.194;2022-07-23T09:09:20;102070.0;;;19.91;55.53
68474;BME280;55461;52.066;5.194;2022-07-23T09:12:58;102070.0;;;19.86;55.89
68474;BME280;55461;52.066;5.194;2022-07-23T09:14:46;102077.0;;;19.46;55.94
68474;BME280;55461;52.066;5.194;2022-07-23T09:16:33;102073.0;;;19.87;55.89
68474;BME280;55461;52.066;5.194;2022-07-23T09:20:16;102077.0;;;19.8;56.04
68474;BME280;55461;52.066;5.194;2022-07-23T09:22:21;102073.0;;;19.81;55.76
68474;BME280;55461;52.066;5.194;2022-07-23T09:24:10;102072.0;;;19.96;55.14
68474;BME280;55461;52.066;5.194;2022-07-23T09:25:56;102073.0;;;19.7;55.15
68474;BME280;55461;52.066;5.194;2022-07-23T09:29:55;102073.0;;;19.96;55.01
68474;BME280;55461;52.066;5.194;2022-07-23T09:31:45;102072.0;;;20.18;54.72
68474;BME280;55461;52.066;5.194;2022-07-23T09:33:32;102071.0;;;20.16;55.04
68474;BME280;55461;52.066;5.194;2022-07-23T09:35:19;102075.0;;;20.16;53.81
68474;BME280;55461;52.066;5.194;2022-07-23T09:37:10;102078.0;;;20.03;54.1
68474;BME280;55461;52.066;5.194;2022-07-23T09:38:57;102075.0;;;20.27;53.1
68474;BME280;55461;52.066;5.194;2022-07-23T09:40:44;102080.0;;;20.25;52.8
68474;BME280;55461;52.066;5.194;2022-07-23T09:44:19;102081.0;;;20.21;53.62
68474;BME280;55461;52.066;5.194;2022-07-23T09:46:24;102077.0;;;20.29;52.82
68474;BME280;55461;52.066;5.194;2022-07-23T09:48:13;102075.0;;;20.43;54.1
68474;BME280;55461;52.066;5.194;2022-07-23T09:50:03;102076.0;;;20.27;52.93
68474;BME280;55461;52.066;5.194;2022-07-23T09:51:52;102080.0;;;20.54;52.14
68474;BME280;55461;52.066;5.194;2022-07-23T09:53:40;102083.0;;;20.58;51.62
68474;BME280;55461;52.066;5.194;2022-07-23T09:55:31;102088.0;;;20.69;51.46
68474;BME280;55461;52.066;5.194;2022-07-23T09:57:18;102088.0;;;20.49;51.88
68474;BME280;55461;52.066;5.194;2022-07-23T10:00:53;102085.0;;;20.76;51.21
68474;BME280;55461;52.066;5.194;2022-07-23T10:02:40;102087.0;;;20.68;49.94
68474;BME280;55461;52.066;5.194;2022-07-23T10:04:28;102084.0;;;20.87;51.77
68474;BME280;55461;52.066;5.194;2022-07-23T10:06:16;102083.0;;;20.87;50.17
68474;BME280;55461;52.066;5.194;2022-07-23T10:08:02;102085.0;;;20.84;50.02
68474;BME280;55461;52.066;5.194;2022-07-23T10:09:51;102087.0;;;20.85;49.53
68474;BME280;55461;52.066;5.194;2022-07-23T10:13:59;102081.0;;;21.1;49.58
68474;BME280;55461;52.066;5.194;2022-07-23T10:15:46;102075.0;;;21.27;49.75
68474;BME280;55461;52.066;5.194;2022-07-23T10:17:33;102075.0;;;21.36;50.49
68474;BME280;55461;52.066;5.194;2022-07-23T10:19:21;102071.0;;;21.56;49.97
68474;BME280;55461;52.066;5.194;2022-07-23T10:21:09;102070.0;;;21.5;49.35
68474;BME280;55461;52.066;5.194;2022-07-23T10:23:02;102073.0;;;21.29;48.2
68474;BME280;55461;52.066;5.194;2022-07-23T10:24:58;102077.0;;;21.14;48.49
68474;BME280;55461;52.066;5.194;2022-07-23T10:26:57;102075.0;;;20.94;49.83
68474;BME280;55461;52.066;5.194;2022-07-23T10:29:08;102075.0;;;21.06;49.55
68474;BME280;55461;52.066;5.194;2022-07-23T10:31:04;102070.0;;;21.22;48.42
68474;BME280;55461;52.066;5.194;2022-07-23T10:33:09;102066.0;;;21.33;48.1
68474;BME280;55461;52.066;5.194;2022-07-23T10:35:09;102067.0;;;21.51;47.2
68474;BME280;55461;52.066;5.194;2022-07-23T10:37:07;102066.0;;;21.69;46.71
68474;BME280;55461;52.066;5.194;2022-07-23T10:40:59;102069.0;;;21.58;46.43
68474;BME280;55461;52.066;5.194;2022-07-23T10:42:48;102063.0;;;21.9;47.33
68474;BME280;55461;52.066;5.194;2022-07-23T10:44:39;102064.0;;;21.79;47.41
68474;BME280;55461;52.066;5.194;2022-07-23T10:46:30;102062.0;;;21.85;47.85
68474;BME280;55461;52.066;5.194;2022-07-23T10:48:18;102064.0;;;21.66;47.64
68474;BME280;55461;52.066;5.194;2022-07-23T10:50:23;102065.0;;;21.82;47.04
68474;BME280;55461;52.066;5.194;2022-07-23T10:52:20;102060.0;;;21.9;48.28
68474;BME280;55461;52.066;5.194;2022-07-23T10:54:20;102059.0;;;21.88;47.44
68474;BME280;55461;52.066;5.194;2022-07-23T10:56:07;102062.0;;;21.73;48.15
68474;BME280;55461;52.066;5.194;2022-07-23T10:57:53;102057.0;;;21.86;48.93
68474;BME280;55461;52.066;5.194;2022-07-23T11:02:33;102055.0;;;22.03;47.78
68474;BME280;55461;52.066;5.194;2022-07-23T11:04:48;102049.0;;;22.38;48.77
68474;BME280;55461;52.066;5.194;2022-07-23T11:07:07;102055.0;;;22.3;47.69
68474;BME280;55461;52.066;5.194;2022-07-23T11:09:24;102055.0;;;21.95;47.62
68474;BME280;55461;52.066;5.194;2022-07-23T11:11:12;102051.0;;;22.5;48.23
68474;BME280;55461;52.066;5.194;2022-07-23T11:13:29;102051.0;;;22.72;47.65
68474;BME280;55461;52.066;5.194;2022-07-23T11:15:16;102059.0;;;22.9;47.76
68474;BME280;55461;52.066;5.194;2022-07-23T11:17:18;102057.0;;;22.81;46.31
68474;BME280;55461;52.066;5.194;2022-07-23T11:19:07;102058.0;;;22.68;45.13
68474;BME280;55461;52.066;5.194;2022-07-23T11:20:53;102057.0;;;22.75;45.93